TAF и METAR доступ на сервер Росгидромета

M

myxortini

Новичок
Подскажите пойжалуста где теперь можно следить за фактической погодой и смотреть прогнозы по аэропортам?
До этого был логин и пароль на хабаровском сервере(по айпишнику).пароль судя по всему сменили.
Сейчас вообще негде в интернете это найти??
Особенно по таким аэропортам как черский,чокурдах,провидения бухтв и т.д.
Пжайлуста подскажите кто что знает
 
Реклама
LAlex

LAlex

untt
S7 и «Уральские авиалинии» могут закрыть часть рейсов

На прошлой неделе ФГБУ «Авиаметтелеком Росгидромета» перестало предоставлять авиакомпаниям и международным информационным системам (SITA, Jeppesen) метеорологическую информацию по большому количеству аэропортов. Об этом рассказал гендиректор авиакомпании «Сибирь» (вместе с авиакомпанией «Глобус» входит в S7 Group – крупнейшего частного игрока) Владимир Объедков. Количество таких аэропортов критическое, хотя в большей степени это коснулось локальных аэропортов, добавляет топ-менеджер. Компания рассматривает возможность отменить рейсы по ряду направлений, продолжил Объедков.

Проблема есть, подтвердили два менеджера «Уральских авиалиний» (вторая крупнейшая частная авиакомпания). «Авиаметтелеком» для международного распространения готовит только сводки погоды по 19 крупнейшим российским аэропортам, хотя раньше готовил по 56. «Уральские авиалинии» с ФГБУ не работают с 2012 г. и получали всю информацию от SITA. Теперь ее количество сильно ограничено, объяснил один из собеседников.

Свои действия «Авиаметтелеком» объясняет тем, что его услуги не оплачиваются, говорит Объедков. Но по приказу Минтранса с 24 марта плата за метеорологическую информацию включена в состав аэронавигационных сборов, которые авиакомпании платят Госкорпорации по организации воздушного движения (Госкорпорация ОрВД). А та потом сама оплачивает работу ФГБУ. Платить «Авиаметтелекому» у авиакомпаний теперь нет юридических оснований, эти платежи нельзя было бы отнести на расходы и это означало бы двойную оплату услуг, продолжает Объедков. Между тем «Авиаметтелеком» выставил S7 счета с 24 марта на десятки миллионов рублей.

Цена прогноза
3,8 миллиарда рублей заплатили российские авиакомпании в 2016 г. за метеообеспечение, в 2013 г. было 2,3 млрд руб. – у нас в стране нет такой инфляции, заявил в апреле на заседании подкомиссии РСПП по авиации замдиректора департамента гражданской авиации Минтранса Андрей Шнырев

«Авиаметтелеком» предоставлял информацию на этапе подготовки к полету, ее отсутствие – нарушение правил предполетной подготовки. Во время полета экипаж получает информацию о погоде от Госкорпорации по ОрВД, говорит Объедков. На основе предварительного прогноза диспетчер рассчитывает маршрут рейса, запасной аэродром, от этого зависит количество топлива – все это обеспечивает максимальную безопасность, добавляет менеджер «Уральских авиалиний». Без этой информации работать тяжело. Но пока компания справляется и отменять рейсы не планирует, продолжает собеседник.

Гендиректор «Авиаметтелекома» Марина Петрова и представитель Госкорпорации ОрВД говорят, что сводки погоды по-прежнему надо оплачивать «Авиаметтелекому». По словам Петровой, кроме S7 и «Уральских авиалиний», все авиакомпании, в том числе «Аэрофлот», заключили договоры с ФГБУ и получают от него метеорологическую информацию. Список аэропортов, по которым сводки предоставляются для международного обмена, был скорректирован Минтрансом. Ранее он был слишком широким, получалось, Россия нерачительно относилась к своей информации, объяснила Петрова.

Представитель «Аэрофлота» на запрос «Ведомостей» не ответил. «Нам пришлось заключить договор с «Авиаметтелекомом», так как, несмотря на приказ Минтранса, полномочия по предоставлению сводок в госкорпорацию не были переданы», – говорит топ-менеджер другой авиакомпании, подконтрольной государству.

«На совещании у замминистра транспорта Валерия Окулова 7 июля мы заявили, что в августе все-таки разорвем договор с «Авиаметтелекомом», так как должны получать сводки из госкорпорации. В ответ Окулов разослал письма всем авиакомпаниям с просьбой договоры не разрывать», – возмущен топ-менеджер крупной авиакомпании.

Представитель Минтранса на запрос «Ведомостей» не ответил. «Услуги «Авиаметтелекома» обходятся в разы дороже, чем SITA, ими пользуются небольшие авиакомпании, у которых нет бюджета на информационные технологии, или крупные перевозчики для нескольких небольших аэропортов. Нам же акционер поставил задачу эти расходы сократить», – говорит менеджер «Уральских авиалиний».
https://www.vedomosti.ru/amp/4bff3f8513/business/articles/2017/07/18/724212-s7-uralskie-avialinii
 
  • Спасибо
Reactions: Pit
Андрей 65000

Андрей 65000

Старожил
Подскажите пойжалуста где теперь можно следить за фактической погодой и смотреть прогнозы по аэропортам?
Архив METAR я смотрю на этом сайте: http://aviationwxchartsarchive.com/product/metar
Актуальную погоду, прогноз и архив до 36 часов смотрю на этом: http://aviationweather.ncep.noaa.gov/metar?gis=off
У него большая зона охвата по миру, но небольшие аэропорты часто отсутствуют.
Мне он приемлем, обновления приходят достаточно быстро и пользоваться им удобно. Но он для крупных аэропортов, у мелких данные то бывают, то отсутствуют.
 
LAlex

LAlex

untt
Андрей 65000, проблема в том, что на всю Россию теперь осталось 19 аэропортов в которых можно увидеть метар, даже на этих замечательных сайтах.
 
Последнее редактирование:
Андрей 65000

Андрей 65000

Старожил
Думаю, на этом сайте побольше. Я часто смотрю погоду. Список аэропортов РФ на этом сайте побольше, чем 20, больше 50.
Еще небольшие аэропорты бывают, но неустойчиво, - то есть, то нет. Например, так бывает у аэропортов Воркута, Чебоксары, Печора, Хатанга и т.п.
А такие, как Сыктывкар, Ухта, Норильск - обычно есть. Крупные - вроде московских, Пулково, Сочи, Ростов, Краснодар, Новосибирск, Владивосток, Хабаровск, Магадан - всегда есть. Попробуйте, рекомендую (для крупных и средних аэропортов).
 
213

213

Старожил
Думаю, на этом сайте побольше. Я часто смотрю погоду. Список аэропортов РФ на этом сайте побольше, чем 20, больше 50.
Еще небольшие аэропорты бывают, но неустойчиво, - то есть, то нет. Например, так бывает у аэропортов Воркута, Чебоксары, Печора, Хатанга и т.п.
А такие, как Сыктывкар, Ухта, Норильск - обычно есть. Крупные - вроде московских, Пулково, Сочи, Ростов, Краснодар, Новосибирск, Владивосток, Хабаровск, Магадан - всегда есть. Попробуйте, рекомендую (для крупных и средних аэропортов).
Попробуйте посмотреть, большинства аэропортов уже нет. Сейчас вылетая из-за границы в Москву даже Нижний запасным не возьмёшь, прогноза вне территории РФ предоставить не могут
 
Андрей 65000

Андрей 65000

Старожил
Да, сейчас посмотрел, по Стригино данных нет. Но есть по Шереметьево, Домодедово, Внуково, Пулково, Минск-2.
 
LAlex

LAlex

untt
Андрей 65000, список по которому есть приведен в документе выше.
Сейчас потыкал произвольно, Томска нет, Кемерово нет, Сыктывкара, Магадана нет..
А Москва и Питер то есть конечно, слишком много туда иностранцев летает, чтобы у них погоду отобрать.
 
213

213

Старожил
Андрей 65000, список по которому есть приведен в документе выше.
Сейчас потыкал произвольно, Томска нет, Кемерово нет, Сыктывкара нет..
А Москва и Питер то есть конечно, слишком много туда иностранцев летает, чтобы у них погоду отобрать.
Даже Самары нет, хотя туда и иностранцы летают, и наших много с чартерами
 
Реклама
Андрей 65000

Андрей 65000

Старожил
Самары - нет, Казань - есть. :)
Но именно сейчас и Сыктывкара нет, хотя он обычно есть. Какие-то перебои. Сайт-то ничего не гарантирует.
Более 50 аэропортов, уверен, сайт показывает.
 
213

213

Старожил
Самары - нет, Казань - есть. :)
Но именно сейчас и Сыктывкара нет, хотя он обычно есть. Какие-то перебои. Сайт-то ничего не гарантирует.
Более 50 аэропортов, уверен, сайт показывает.
Уже не показывает, вверху размещён документ, почитайте.
 
Zizilk

Zizilk

Черный лис
Интересно, где-то год назад запретили выкладывать в открытую сырые данные с метеостанций и метеорадаров
 
Андрей 65000

Андрей 65000

Старожил
Уже не показывает, вверху размещён документ, почитайте.
Вот, только-что посмотрел, Казань:
Data at: 0945 UTC 18 Jul 2017

UWKD 180930Z 27002MPS 230V300 9999 SCT033 24/18 Q1011 R11/CLRD70 NOSIG RMK QFE748/0998
UWKD 180900Z VRB01MPS 9999 SCT033 24/18 Q1011 R11/CLRD70 NOSIG RMK QFE748/0998
UWKD 180830Z VRB01MPS 9999 SCT033 24/19 Q1012 R11/CLRD70 NOSIG RMK QFE749/0998
UWKD 180800Z 19002MPS 140V230 9999 SCT033 24/19 Q1012 R11/CLRD70 NOSIG RMK QFE749/0999
UWKD 180730Z 17002MPS 140V200 CAVOK 24/19 Q1012 R11/70D NOSIG RMK QFE749/0999
UWKD 180700Z 23002MPS CAVOK 23/19 Q1012 R11/70D NOSIG RMK QFE749/0999
UWKD 180630Z 15002MPS CAVOK 23/19 Q1012 R11/CLRD70 NOSIG RMK QFE749/0999
UWKD 180600Z 06002MPS 040V110 CAVOK 23/19 Q1012 R29/CLRD70 NOSIG RMK QFE748/0998

Но он входит в список.
Да, похоже, заработал приказ.
 
Последнее редактирование:
213

213

Старожил
Вот, только-что посмотрел, Казань:
Data at: 0945 UTC 18 Jul 2017

UWKD 180930Z 27002MPS 230V300 9999 SCT033 24/18 Q1011 R11/CLRD70 NOSIG RMK QFE748/0998
UWKD 180900Z VRB01MPS 9999 SCT033 24/18 Q1011 R11/CLRD70 NOSIG RMK QFE748/0998
UWKD 180830Z VRB01MPS 9999 SCT033 24/19 Q1012 R11/CLRD70 NOSIG RMK QFE749/0998
UWKD 180800Z 19002MPS 140V230 9999 SCT033 24/19 Q1012 R11/CLRD70 NOSIG RMK QFE749/0999
UWKD 180730Z 17002MPS 140V200 CAVOK 24/19 Q1012 R11/70D NOSIG RMK QFE749/0999
UWKD 180700Z 23002MPS CAVOK 23/19 Q1012 R11/70D NOSIG RMK QFE749/0999
UWKD 180630Z 15002MPS CAVOK 23/19 Q1012 R11/CLRD70 NOSIG RMK QFE749/0999
UWKD 180600Z 06002MPS 040V110 CAVOK 23/19 Q1012 R29/CLRD70 NOSIG RMK QFE748/0998

Но он входит в список.
Да, Казань есть. И ещё 18 аэропортов. И все. Никаких 50
 
Андрей 65000

Андрей 65000

Старожил
Теперь согласен. Не знал. Еще недавно было очень удобно пользоваться.
 
Андрей 65000

Андрей 65000

Старожил
Еще в прошлом месяце смотрел погоду в Сыктывкаре, теперь - нет, увы.
 
Реклама